createdAt,value
2023-03-20T00:01:26.895Z,59.41
2023-03-20T00:03:53.591Z,59.12
2023-03-20T00:06:23.292Z,59.89
2023-03-20T00:08:53.057Z,59.42
2023-03-20T00:11:36.447Z,59.21
2023-03-20T00:14:06.022Z,58.90
2023-03-20T00:16:38.004Z,59.07
2023-03-20T00:19:06.591Z,59.15
2023-03-20T00:21:35.153Z,58.66
2023-03-20T00:24:02.135Z,58.78
2023-03-20T00:26:33.681Z,58.69
2023-03-20T00:29:01.700Z,59.64
2023-03-20T00:31:31.451Z,59.57
2023-03-20T00:34:03.769Z,59.74
2023-03-20T00:36:30.690Z,59.33
2023-03-20T00:38:59.410Z,59.98
2023-03-20T00:41:28.568Z,60.02
2023-03-20T00:44:01.664Z,59.62
2023-03-20T00:46:29.367Z,59.83
2023-03-20T00:48:56.560Z,59.87
2023-03-20T00:51:23.484Z,59.76
2023-03-20T00:53:53.543Z,59.60
2023-03-20T00:56:35.725Z,60.06
2023-03-20T00:59:04.250Z,59.91
2023-03-20T01:01:32.275Z,59.42
2023-03-20T01:04:00.366Z,59.84
2023-03-20T01:06:28.937Z,59.65
2023-03-20T01:08:57.781Z,59.58
2023-03-20T01:11:25.748Z,60.03
2023-03-20T01:13:52.507Z,59.29
2023-03-20T01:16:28.312Z,59.86
2023-03-20T01:18:55.834Z,59.45
2023-03-20T01:21:22.608Z,59.11
2023-03-20T01:23:50.016Z,59.12
2023-03-20T01:26:36.871Z,59.53
2023-03-20T01:29:05.571Z,59.10
2023-03-20T01:31:33.602Z,59.02
2023-03-20T01:34:00.656Z,59.10
2023-03-20T01:36:27.847Z,59.10
2023-03-20T01:38:57.391Z,59.68
2023-03-20T01:41:26.440Z,59.31
2023-03-20T01:43:53.527Z,59.56
2023-03-20T01:46:26.536Z,59.88
2023-03-20T01:49:01.470Z,59.43
2023-03-20T01:51:33.093Z,59.56
2023-03-20T01:54:37.557Z,59.76
2023-03-20T01:57:28.429Z,59.76
2023-03-20T02:00:26.758Z,59.83
2023-03-20T02:02:56.744Z,60.39
2023-03-20T02:05:51.151Z,59.77
2023-03-20T02:08:33.378Z,60.21
2023-03-20T02:11:05.286Z,59.88
2023-03-20T02:13:35.639Z,59.83
2023-03-20T02:16:17.786Z,59.91
2023-03-20T02:19:01.459Z,59.95
2023-03-20T02:21:59.869Z,59.59
2023-03-20T02:24:52.839Z,59.95
2023-03-20T02:27:49.127Z,59.96
2023-03-20T02:30:39.367Z,59.65
2023-03-20T02:33:44.968Z,59.62
2023-03-20T02:36:51.573Z,59.89
2023-03-20T02:39:32.986Z,60.68
2023-03-20T02:42:19.133Z,60.39
2023-03-20T02:45:16.417Z,60.46
2023-03-20T02:47:55.103Z,60.89
2023-03-20T02:50:41.350Z,60.99
2023-03-20T02:53:42.822Z,61.42
2023-03-20T02:56:28.648Z,60.76
2023-03-20T02:59:10.647Z,61.12
2023-03-20T03:01:44.331Z,60.88
2023-03-20T03:04:18.512Z,60.91
2023-03-20T03:06:50.431Z,60.47
2023-03-20T03:09:29.065Z,60.21
2023-03-20T03:12:04.161Z,60.60
2023-03-20T03:14:46.173Z,60.36
2023-03-20T03:17:18.922Z,60.23
2023-03-20T03:19:50.588Z,60.13
2023-03-20T03:22:18.828Z,60.53
2023-03-20T03:24:52.018Z,60.05
2023-03-20T03:27:49.030Z,60.10
2023-03-20T03:30:22.996Z,59.62
2023-03-20T03:33:03.254Z,59.90
2023-03-20T03:35:34.829Z,59.95
2023-03-20T03:38:12.488Z,60.57
2023-03-20T03:41:03.984Z,60.13
2023-03-20T03:43:37.190Z,60.29
2023-03-20T03:46:12.719Z,60.59
2023-03-20T03:48:46.459Z,60.50
2023-03-20T03:51:18.174Z,60.71
2023-03-20T03:54:10.549Z,60.57
2023-03-20T03:56:40.581Z,60.63
2023-03-20T03:59:14.096Z,60.50
2023-03-20T04:01:44.803Z,60.77
2023-03-20T04:04:20.487Z,60.35
2023-03-20T04:06:48.567Z,60.23
2023-03-20T04:09:15.811Z,59.71
2023-03-20T04:11:51.926Z,60.30
2023-03-20T04:14:19.637Z,60.18
2023-03-20T04:16:46.936Z,60.21
2023-03-20T04:19:14.281Z,59.80
2023-03-20T04:21:46.017Z,60.45
2023-03-20T04:24:13.027Z,59.91
2023-03-20T04:26:40.969Z,60.72
2023-03-20T04:29:09.051Z,59.98
2023-03-20T04:31:59.054Z,60.56
2023-03-20T04:34:56.093Z,60.28
2023-03-20T04:37:30.992Z,60.25
2023-03-20T04:40:06.387Z,60.11
2023-03-20T04:42:34.182Z,60.60
2023-03-20T04:45:10.640Z,60.14
2023-03-20T04:47:40.109Z,60.63
2023-03-20T04:50:08.569Z,60.52
2023-03-20T04:52:37.552Z,60.60
2023-03-20T04:55:09.161Z,60.67
2023-03-20T04:57:42.091Z,60.22
2023-03-20T05:00:11.984Z,60.15
2023-03-20T05:02:39.293Z,60.03
2023-03-20T05:05:07.024Z,60.53
2023-03-20T05:07:42.649Z,59.90
2023-03-20T05:10:17.756Z,60.13
2023-03-20T05:13:00.633Z,59.67
2023-03-20T05:15:57.327Z,60.13
2023-03-20T05:18:57.203Z,60.34
2023-03-20T05:21:43.457Z,60.95
2023-03-20T05:24:16.674Z,60.55
2023-03-20T05:27:09.069Z,60.87
2023-03-20T05:29:59.778Z,60.38
2023-03-20T05:32:51.258Z,60.01
2023-03-20T05:35:36.978Z,60.55
2023-03-20T05:38:28.013Z,60.10
2023-03-20T05:41:27.117Z,60.76
2023-03-20T05:44:23.064Z,61.11
2023-03-20T05:47:11.601Z,61.38
2023-03-20T05:50:01.821Z,61.04
2023-03-20T05:52:37.189Z,61.37
2023-03-20T05:55:19.008Z,60.87
2023-03-20T05:58:06.419Z,60.59
2023-03-20T06:01:03.376Z,60.45
2023-03-20T06:03:49.802Z,60.47
2023-03-20T06:06:28.096Z,60.56
2023-03-20T06:08:55.610Z,60.30
2023-03-20T06:11:23.103Z,60.82
2023-03-20T06:13:51.393Z,60.69
2023-03-20T06:16:19.356Z,60.58
2023-03-20T06:18:49.603Z,60.75
2023-03-20T06:21:17.743Z,61.02
2023-03-20T06:23:44.963Z,60.22
2023-03-20T06:26:12.268Z,60.71
2023-03-20T06:28:56.920Z,60.60
2023-03-20T06:31:24.520Z,60.43
2023-03-20T06:33:56.045Z,60.02
2023-03-20T06:36:24.111Z,59.90
2023-03-20T06:38:57.600Z,60.07
2023-03-20T06:41:34.622Z,60.33
2023-03-20T06:44:06.316Z,60.04
2023-03-20T06:46:53.678Z,59.99
2023-03-20T06:49:21.101Z,59.72
2023-03-20T06:51:48.767Z,60.28
2023-03-20T06:54:23.830Z,60.30
2023-03-20T06:56:52.514Z,59.69
2023-03-20T06:59:28.561Z,59.97
2023-03-20T07:01:58.796Z,60.26
2023-03-20T07:04:28.228Z,60.39
2023-03-20T07:06:59.753Z,59.81
2023-03-20T07:09:27.240Z,60.03
2023-03-20T07:11:54.824Z,60.12
2023-03-20T07:14:23.883Z,60.23
2023-03-20T07:16:56.638Z,60.23
2023-03-20T07:19:24.772Z,59.95
2023-03-20T07:22:01.951Z,59.60
2023-03-20T07:24:35.366Z,59.73
2023-03-20T07:27:02.853Z,59.24
2023-03-20T07:29:31.686Z,59.50
2023-03-20T07:32:01.307Z,59.17
2023-03-20T07:34:35.881Z,58.73
2023-03-20T07:37:04.048Z,58.79
2023-03-20T07:39:32.785Z,58.62
2023-03-20T07:42:23.273Z,58.29
2023-03-20T07:44:59.122Z,58.46
2023-03-20T07:47:26.333Z,58.26
2023-03-20T07:49:53.911Z,58.54
2023-03-20T07:52:20.981Z,58.63
2023-03-20T07:54:48.159Z,58.65
2023-03-20T07:57:15.608Z,58.92
2023-03-20T07:59:45.862Z,58.80
2023-03-20T08:02:18.276Z,58.66
2023-03-20T08:04:46.749Z,59.48
2023-03-20T08:07:13.735Z,59.34
2023-03-20T08:09:41.935Z,59.76
2023-03-20T08:12:10.298Z,59.26
2023-03-20T08:14:38.792Z,58.87
2023-03-20T08:17:15.015Z,59.55
2023-03-20T08:19:43.186Z,59.56
2023-03-20T08:22:10.184Z,59.02
2023-03-20T08:24:37.771Z,58.80
2023-03-20T08:27:06.905Z,58.39
2023-03-20T08:29:38.259Z,58.61
2023-03-20T08:32:06.412Z,58.17
2023-03-20T08:34:34.413Z,58.36
2023-03-20T08:37:04.228Z,58.33
2023-03-20T08:39:33.473Z,57.76
2023-03-20T08:42:01.823Z,58.18
2023-03-20T08:44:29.488Z,58.20
2023-03-20T08:46:59.692Z,58.06
2023-03-20T08:49:28.004Z,57.54
2023-03-20T08:51:56.307Z,57.80
2023-03-20T08:54:23.922Z,58.00
2023-03-20T08:56:51.936Z,58.06
2023-03-20T08:59:20.115Z,58.10
2023-03-20T09:01:50.198Z,58.17
2023-03-20T09:04:19.019Z,58.08
2023-03-20T09:06:49.451Z,58.11
2023-03-20T09:09:19.782Z,57.59
2023-03-20T09:11:48.705Z,57.43
2023-03-20T09:14:19.070Z,57.00
2023-03-20T09:16:47.233Z,57.09
2023-03-20T09:19:15.016Z,57.00
2023-03-20T09:21:42.275Z,56.25
2023-03-20T09:24:09.764Z,56.15
2023-03-20T09:26:36.950Z,55.73
2023-03-20T09:29:05.022Z,55.53
2023-03-20T09:31:32.278Z,54.96
2023-03-20T09:33:59.744Z,53.79
2023-03-20T09:36:27.087Z,53.10
2023-03-20T09:38:57.487Z,52.01
2023-03-20T09:41:28.382Z,51.42
2023-03-20T09:44:18.993Z,50.60
2023-03-20T09:47:08.720Z,50.22
2023-03-20T09:50:09.588Z,49.51
2023-03-20T09:52:52.604Z,49.91
2023-03-20T09:55:25.711Z,49.70
2023-03-20T09:57:58.255Z,49.62
2023-03-20T10:00:29.383Z,49.35
2023-03-20T10:03:05.146Z,49.48
2023-03-20T10:05:39.367Z,49.81
2023-03-20T10:08:14.410Z,50.69
2023-03-20T10:10:51.918Z,50.89
2023-03-20T10:13:39.957Z,50.81
2023-03-20T10:16:35.597Z,50.66
2023-03-20T10:19:27.496Z,50.17
2023-03-20T10:22:14.294Z,49.93
2023-03-20T10:24:49.820Z,50.05
2023-03-20T10:28:04.422Z,50.66
2023-03-20T10:30:55.106Z,51.57
2023-03-20T10:33:48.077Z,51.72
2023-03-20T10:36:46.321Z,52.16
2023-03-20T10:39:50.512Z,52.13
2023-03-20T10:42:25.402Z,51.63
2023-03-20T10:44:59.369Z,51.19
2023-03-20T10:47:30.541Z,50.58
2023-03-20T10:50:07.492Z,50.74
2023-03-20T10:52:39.763Z,50.71
2023-03-20T10:55:18.589Z,50.92
2023-03-20T10:57:51.909Z,51.04
2023-03-20T11:00:22.776Z,50.38
2023-03-20T11:02:49.932Z,49.21
2023-03-20T11:05:30.772Z,45.53
2023-03-20T11:08:12.994Z,40.09
2023-03-20T11:10:42.145Z,34.93
2023-03-20T11:13:38.821Z,31.87
2023-03-20T11:16:16.372Z,33.42
2023-03-20T11:18:43.786Z,35.03
2023-03-20T11:21:26.140Z,36.91
2023-03-20T11:23:54.284Z,37.59
2023-03-20T11:26:32.068Z,37.12
2023-03-20T11:29:00.757Z,35.77
2023-03-20T11:31:41.466Z,36.79
2023-03-20T11:34:14.311Z,37.59
2023-03-20T11:37:08.590Z,38.05
2023-03-20T11:39:53.009Z,37.41
2023-03-20T11:42:26.584Z,37.11
2023-03-20T11:45:17.029Z,37.04
2023-03-20T11:47:49.114Z,37.12
2023-03-20T11:50:37.671Z,37.76
2023-03-20T11:53:26.403Z,38.40
2023-03-20T11:56:11.011Z,38.77
2023-03-20T11:59:02.562Z,39.02
2023-03-20T12:01:40.856Z,38.94
2023-03-20T12:04:13.640Z,38.75
2023-03-20T12:06:43.504Z,37.98
2023-03-20T12:09:42.665Z,35.16
2023-03-20T12:12:16.223Z,33.63
2023-03-20T12:14:53.539Z,33.53
2023-03-20T12:17:43.074Z,32.88
2023-03-20T12:20:19.902Z,33.21
2023-03-20T12:23:00.944Z,33.00
2023-03-20T12:25:35.989Z,33.43
2023-03-20T12:28:14.726Z,34.56
2023-03-20T12:30:55.341Z,35.45
2023-03-20T12:33:49.372Z,35.33
2023-03-20T12:36:24.220Z,34.70
2023-03-20T12:38:51.203Z,35.42
2023-03-20T12:41:40.364Z,35.35
2023-03-20T12:44:21.973Z,35.24
2023-03-20T12:47:00.374Z,35.84
2023-03-20T12:49:56.380Z,35.11
2023-03-20T12:53:04.017Z,34.71
2023-03-20T12:56:13.985Z,34.58
2023-03-20T12:58:44.092Z,33.76
2023-03-20T13:01:31.934Z,32.76
2023-03-20T13:04:28.421Z,32.42
2023-03-20T13:07:00.136Z,32.47
2023-03-20T13:10:02.413Z,32.50
2023-03-20T13:12:38.025Z,31.61
2023-03-20T13:15:32.611Z,31.57
2023-03-20T13:18:08.668Z,31.26
2023-03-20T13:20:39.079Z,30.98
2023-03-20T13:23:27.500Z,31.42
2023-03-20T13:26:32.640Z,31.09
2023-03-20T13:29:08.640Z,30.60
2023-03-20T13:32:06.085Z,31.04
2023-03-20T13:35:05.905Z,30.88
2023-03-20T13:37:41.665Z,30.89
2023-03-20T13:40:44.062Z,31.21
2023-03-20T13:43:43.751Z,31.01
2023-03-20T13:46:46.324Z,31.95
2023-03-20T13:49:36.490Z,31.44
2023-03-20T13:52:16.752Z,31.46
2023-03-20T13:54:53.989Z,32.08
2023-03-20T13:57:38.602Z,31.78
2023-03-20T14:00:18.325Z,31.50
2023-03-20T14:03:08.128Z,30.91
2023-03-20T14:05:41.129Z,31.23
2023-03-20T14:08:33.556Z,30.95
2023-03-20T14:11:06.904Z,31.31
2023-03-20T14:13:35.358Z,31.32
2023-03-20T14:16:07.818Z,30.97
2023-03-20T14:18:36.635Z,30.19
2023-03-20T14:21:15.545Z,30.30
2023-03-20T14:23:47.107Z,30.23
2023-03-20T14:26:23.360Z,30.23
2023-03-20T14:28:58.086Z,29.99
2023-03-20T14:31:26.649Z,29.81
2023-03-20T14:33:59.717Z,29.00
2023-03-20T14:36:31.718Z,29.01
2023-03-20T14:39:19.596Z,28.91
2023-03-20T14:42:26.161Z,28.77
2023-03-20T14:44:56.351Z,29.26
2023-03-20T14:47:44.495Z,29.27
2023-03-20T14:50:18.883Z,29.88
2023-03-20T14:53:11.295Z,29.64
2023-03-20T14:55:56.245Z,29.40
2023-03-20T14:58:41.633Z,28.91
2023-03-20T15:01:19.509Z,29.78
2023-03-20T15:04:59.394Z,29.62
2023-03-20T15:07:39.446Z,30.50
2023-03-20T15:10:07.582Z,30.02
2023-03-20T15:12:37.424Z,30.47
2023-03-20T15:15:26.270Z,30.07
2023-03-20T15:17:53.491Z,30.85
2023-03-20T15:20:26.507Z,31.10
2023-03-20T15:23:01.600Z,31.38
2023-03-20T15:25:44.078Z,31.43
2023-03-20T15:28:19.447Z,31.73
2023-03-20T15:30:49.626Z,31.37
2023-03-20T15:33:20.410Z,31.05
2023-03-20T15:35:48.095Z,30.83
2023-03-20T15:38:17.252Z,31.12
2023-03-20T15:40:51.145Z,30.61
2023-03-20T15:43:27.019Z,30.22
2023-03-20T15:46:16.268Z,30.16
2023-03-20T15:48:51.258Z,30.59
2023-03-20T15:51:21.745Z,30.72
2023-03-20T15:53:49.278Z,30.37
2023-03-20T15:56:19.605Z,30.34
2023-03-20T15:58:50.592Z,30.49
2023-03-20T16:01:20.402Z,30.41
2023-03-20T16:03:48.438Z,30.25
2023-03-20T16:06:21.026Z,29.17
2023-03-20T16:09:01.392Z,29.15
2023-03-20T16:11:43.864Z,28.91
2023-03-20T16:14:16.824Z,29.37
2023-03-20T16:16:47.120Z,29.38
2023-03-20T16:19:15.160Z,30.08
2023-03-20T16:21:48.910Z,30.27
2023-03-20T16:24:20.053Z,30.53
2023-03-20T16:26:50.911Z,30.44
2023-03-20T16:29:19.647Z,30.34
2023-03-20T16:31:58.233Z,31.09
2023-03-20T16:34:38.395Z,30.37
2023-03-20T16:37:28.118Z,30.89
2023-03-20T16:40:28.793Z,31.30
2023-03-20T16:42:57.255Z,30.87
2023-03-20T16:45:36.995Z,30.82
2023-03-20T16:48:10.096Z,30.61
2023-03-20T16:50:48.543Z,30.97
2023-03-20T16:53:19.492Z,31.13
2023-03-20T16:55:52.090Z,31.34
2023-03-20T16:58:29.562Z,31.20
2023-03-20T17:01:06.152Z,31.46
2023-03-20T17:03:46.234Z,30.77
2023-03-20T17:06:19.658Z,31.05
2023-03-20T17:08:51.446Z,31.24
2023-03-20T17:11:31.326Z,31.65
2023-03-20T17:13:58.628Z,31.51
2023-03-20T17:16:28.695Z,32.02
2023-03-20T17:19:21.215Z,32.00
2023-03-20T17:21:48.440Z,32.24
2023-03-20T17:24:16.952Z,32.08
2023-03-20T17:26:55.217Z,31.86
2023-03-20T17:29:22.562Z,32.19
2023-03-20T17:31:50.056Z,32.15
2023-03-20T17:34:17.092Z,32.66
2023-03-20T17:36:43.768Z,32.83
2023-03-20T17:39:18.900Z,32.51
2023-03-20T17:41:46.409Z,32.67
2023-03-20T17:44:13.043Z,32.97
2023-03-20T17:46:56.275Z,32.81
2023-03-20T17:49:27.258Z,33.32
2023-03-20T17:51:54.709Z,33.75
2023-03-20T17:54:21.595Z,33.98
2023-03-20T17:56:48.325Z,34.15
2023-03-20T17:59:15.368Z,34.49
2023-03-20T18:01:42.423Z,34.64
2023-03-20T18:04:09.608Z,34.62
2023-03-20T18:06:37.076Z,34.70
2023-03-20T18:09:05.093Z,34.28
2023-03-20T18:11:32.114Z,34.56
2023-03-20T18:13:59.905Z,34.36
2023-03-20T18:16:27.389Z,34.19
2023-03-20T18:18:54.494Z,34.47
2023-03-20T18:21:21.498Z,34.46
2023-03-20T18:23:48.441Z,34.26
2023-03-20T18:26:21.409Z,34.27
2023-03-20T18:28:49.454Z,35.12
2023-03-20T18:31:18.995Z,34.86
2023-03-20T18:33:49.788Z,34.68
2023-03-20T18:36:22.122Z,34.97
2023-03-20T18:38:50.770Z,34.96
2023-03-20T18:41:17.503Z,35.29
2023-03-20T18:43:46.586Z,35.13
2023-03-20T18:46:22.115Z,34.98
2023-03-20T18:48:51.904Z,35.16
2023-03-20T18:51:20.363Z,34.92
2023-03-20T18:53:47.619Z,35.13
2023-03-20T18:56:19.230Z,34.88
2023-03-20T18:58:46.960Z,35.33
2023-03-20T19:01:15.645Z,35.41
2023-03-20T19:03:44.135Z,35.19
2023-03-20T19:06:18.751Z,35.71
2023-03-20T19:08:46.663Z,35.68
2023-03-20T19:11:19.596Z,35.50
2023-03-20T19:13:51.168Z,35.59
2023-03-20T19:16:27.077Z,35.63
2023-03-20T19:18:55.977Z,35.39
2023-03-20T19:21:29.179Z,35.51
2023-03-20T19:23:58.217Z,35.56
2023-03-20T19:26:28.051Z,35.66
2023-03-20T19:28:57.192Z,35.60
2023-03-20T19:31:25.517Z,35.73
2023-03-20T19:33:52.977Z,36.06
2023-03-20T19:36:27.888Z,35.74
2023-03-20T19:38:56.015Z,35.76
2023-03-20T19:41:23.534Z,35.99
2023-03-20T19:43:53.595Z,35.66
2023-03-20T19:46:43.003Z,36.11
2023-03-20T19:49:18.562Z,36.00
2023-03-20T19:51:48.103Z,35.86
2023-03-20T19:54:15.282Z,36.10
2023-03-20T19:56:42.431Z,36.28
2023-03-20T19:59:09.430Z,36.33
2023-03-20T20:01:36.553Z,36.18
2023-03-20T20:04:04.583Z,36.16
2023-03-20T20:06:33.010Z,36.83
2023-03-20T20:09:01.567Z,36.54
2023-03-20T20:11:29.088Z,36.72
2023-03-20T20:14:07.693Z,36.38
2023-03-20T20:16:36.806Z,36.10
2023-03-20T20:19:04.086Z,36.31
2023-03-20T20:24:18.018Z,36.40
2023-03-20T20:26:54.428Z,37.04
2023-03-20T20:29:26.867Z,37.17
2023-03-20T20:31:53.984Z,37.36
2023-03-20T20:39:54.802Z,37.75
2023-03-20T20:42:22.922Z,37.33
2023-03-20T20:44:50.159Z,37.47
2023-03-20T20:47:17.624Z,37.42
2023-03-20T20:49:47.420Z,37.25
2023-03-20T20:52:14.852Z,37.43
2023-03-20T20:54:42.352Z,37.51
2023-03-20T20:57:11.433Z,37.68
2023-03-20T20:59:40.285Z,37.55
2023-03-20T21:02:11.534Z,37.45
2023-03-20T21:04:43.011Z,37.90
2023-03-20T21:07:12.293Z,37.89
2023-03-20T21:09:40.427Z,37.64
2023-03-20T21:12:09.923Z,37.82
2023-03-20T21:14:36.917Z,38.24
2023-03-20T21:17:08.265Z,38.16
2023-03-20T21:19:37.461Z,38.33
2023-03-20T21:22:05.570Z,38.08
2023-03-20T21:24:34.670Z,37.88
2023-03-20T21:27:08.079Z,38.47
2023-03-20T21:29:34.981Z,38.32
2023-03-20T21:32:01.794Z,38.86
2023-03-20T21:34:29.150Z,39.05
2023-03-20T21:36:57.860Z,38.87
2023-03-20T21:39:27.605Z,38.79
2023-03-20T21:41:54.329Z,38.90
2023-03-20T21:44:56.080Z,39.35
2023-03-20T21:50:45.949Z,39.15
2023-03-20T21:53:24.060Z,39.61
2023-03-20T21:56:31.079Z,39.99
2023-03-20T22:01:57.437Z,39.78
2023-03-20T22:04:54.776Z,40.00
2023-03-20T22:07:36.042Z,40.15
2023-03-20T22:10:11.145Z,40.34
2023-03-20T22:15:46.301Z,40.06
2023-03-20T22:21:22.471Z,40.51
2023-03-20T22:24:14.583Z,40.77
2023-03-20T22:41:29.630Z,41.36
2023-03-20T22:46:43.874Z,41.96
2023-03-20T22:49:03.512Z,41.38
2023-03-20T22:51:36.954Z,41.77
2023-03-20T22:54:12.039Z,41.79
2023-03-20T22:56:38.902Z,42.18
2023-03-20T22:59:06.735Z,42.05
2023-03-20T23:01:36.072Z,42.61
2023-03-20T23:04:02.931Z,42.46
2023-03-20T23:06:29.816Z,42.37
2023-03-20T23:08:59.671Z,42.69
2023-03-20T23:11:29.977Z,42.73
2023-03-20T23:13:57.290Z,43.61
2023-03-20T23:16:27.176Z,43.32
2023-03-20T23:18:55.566Z,43.83
2023-03-20T23:21:43.412Z,43.72
2023-03-20T23:24:15.582Z,43.56
2023-03-20T23:26:44.068Z,43.38
2023-03-20T23:29:11.614Z,43.00
2023-03-20T23:31:38.785Z,43.14
2023-03-20T23:34:05.676Z,42.58
2023-03-20T23:36:37.019Z,43.08
2023-03-20T23:39:18.759Z,43.00
2023-03-20T23:42:20.257Z,42.83
2023-03-20T23:45:20.865Z,43.00
2023-03-20T23:48:06.009Z,43.56
2023-03-20T23:50:46.089Z,42.98
2023-03-20T23:53:44.639Z,42.80
2023-03-20T23:56:20.163Z,43.65
2023-03-20T23:58:58.310Z,43.46
